createdAt,value
2022-12-05T00:01:32.052Z,19.20
2022-12-05T00:04:02.368Z,18.23
2022-12-05T00:06:31.712Z,18.27
2022-12-05T00:08:59.484Z,17.73
2022-12-05T00:11:32.172Z,17.47
2022-12-05T00:14:01.304Z,19.23
2022-12-05T00:16:32.477Z,19.50
2022-12-05T00:19:04.948Z,17.90
2022-12-05T00:21:35.237Z,18.73
2022-12-05T00:24:04.180Z,19.37
2022-12-05T00:26:32.340Z,18.37
2022-12-05T00:29:00.178Z,20.17
2022-12-05T00:31:28.805Z,21.00
2022-12-05T00:33:56.673Z,20.63
2022-12-05T00:36:30.929Z,19.60
2022-12-05T00:39:02.369Z,20.87
2022-12-05T00:41:29.957Z,19.70
2022-12-05T00:44:00.690Z,19.77
2022-12-05T00:46:31.357Z,18.43
2022-12-05T00:49:00.237Z,20.80
2022-12-05T00:51:35.058Z,19.87
2022-12-05T00:54:05.728Z,18.87
2022-12-05T00:56:34.230Z,19.77
2022-12-05T00:59:02.617Z,20.13
2022-12-05T01:01:35.554Z,18.97
2022-12-05T01:04:25.124Z,19.43
2022-12-05T01:06:57.398Z,20.00
2022-12-05T01:09:25.517Z,18.30
2022-12-05T01:11:52.800Z,19.40
2022-12-05T01:14:22.876Z,19.20
2022-12-05T01:16:52.827Z,20.37
2022-12-05T01:19:30.259Z,18.70
2022-12-05T01:21:58.233Z,19.47
2022-12-05T01:24:26.597Z,18.70
2022-12-05T01:26:54.353Z,18.27
2022-12-05T01:29:23.526Z,18.87
2022-12-05T01:31:51.973Z,18.43
2022-12-05T01:34:19.655Z,17.47
2022-12-05T01:36:47.635Z,17.00
2022-12-05T01:39:15.341Z,17.87
2022-12-05T01:41:47.107Z,16.67
2022-12-05T01:44:14.004Z,17.27
2022-12-05T01:46:51.483Z,16.73
2022-12-05T01:49:25.792Z,16.88
2022-12-05T01:51:58.089Z,15.43
2022-12-05T01:54:25.444Z,14.73
2022-12-05T01:57:06.571Z,13.97
2022-12-05T01:59:51.791Z,14.97
2022-12-05T02:02:19.411Z,14.93
2022-12-05T02:05:01.835Z,14.10
2022-12-05T02:07:29.823Z,13.80
2022-12-05T02:09:57.299Z,13.60
2022-12-05T02:12:25.616Z,13.80
2022-12-05T02:15:26.453Z,14.03
2022-12-05T02:18:13.581Z,13.07
2022-12-05T02:21:22.777Z,13.40
2022-12-05T02:24:15.669Z,12.70
2022-12-05T02:27:33.744Z,13.40
2022-12-05T02:30:49.632Z,12.30
2022-12-05T02:33:30.103Z,12.50
2022-12-05T02:36:13.671Z,12.40
2022-12-05T02:39:00.952Z,12.87
2022-12-05T02:41:42.877Z,12.73
2022-12-05T02:44:22.308Z,13.13
2022-12-05T02:46:52.483Z,13.27
2022-12-05T02:49:30.581Z,12.23
2022-12-05T02:52:00.525Z,12.88
2022-12-05T02:54:35.641Z,12.80
2022-12-05T02:57:04.493Z,13.00
2022-12-05T02:59:31.575Z,12.97
2022-12-05T03:02:01.283Z,13.63
2022-12-05T03:04:30.651Z,11.77
2022-12-05T03:07:07.247Z,11.83
2022-12-05T03:09:56.709Z,11.63
2022-12-05T03:12:33.187Z,12.00
2022-12-05T03:15:08.595Z,12.10
2022-12-05T03:17:56.558Z,12.30
2022-12-05T03:20:34.391Z,11.63
2022-12-05T03:23:14.682Z,12.02
2022-12-05T03:26:25.091Z,12.03
2022-12-05T03:29:12.379Z,12.30
2022-12-05T03:32:29.512Z,11.13
2022-12-05T03:35:26.629Z,11.18
2022-12-05T03:37:56.659Z,11.60
2022-12-05T03:40:47.676Z,12.23
2022-12-05T03:43:37.100Z,11.27
2022-12-05T03:46:14.838Z,12.10
2022-12-05T03:48:56.254Z,11.60
2022-12-05T03:51:31.632Z,11.60
2022-12-05T03:54:03.049Z,11.73
2022-12-05T03:56:48.991Z,11.50
2022-12-05T03:59:32.293Z,10.85
2022-12-05T04:02:05.039Z,11.45
2022-12-05T04:04:39.750Z,11.48
2022-12-05T04:07:09.033Z,11.47
2022-12-05T04:09:47.415Z,11.30
2022-12-05T04:12:26.246Z,11.43
2022-12-05T04:15:19.608Z,12.13
2022-12-05T04:18:01.446Z,11.37
2022-12-05T04:20:59.285Z,11.03
2022-12-05T04:23:28.447Z,11.15
2022-12-05T04:26:20.734Z,10.63
2022-12-05T04:29:04.921Z,11.25
2022-12-05T04:31:48.406Z,11.10
2022-12-05T04:34:18.587Z,11.33
2022-12-05T04:36:55.531Z,10.20
2022-12-05T04:40:01.484Z,11.45
2022-12-05T04:42:32.523Z,10.40
2022-12-05T04:45:06.491Z,11.77
2022-12-05T04:47:41.379Z,11.70
2022-12-05T04:50:11.403Z,11.30
2022-12-05T04:52:41.125Z,12.18
2022-12-05T04:55:20.650Z,12.17
2022-12-05T04:58:08.245Z,13.43
2022-12-05T05:00:58.208Z,12.63
2022-12-05T05:03:54.667Z,13.67
2022-12-05T05:06:22.016Z,12.35
2022-12-05T05:08:57.754Z,12.60
2022-12-05T05:13:54.862Z,12.00
2022-12-05T05:16:35.574Z,12.43
2022-12-05T05:19:02.957Z,13.03
2022-12-05T05:21:36.919Z,11.90
2022-12-05T05:24:05.371Z,11.73
2022-12-05T05:26:36.192Z,11.10
2022-12-05T05:29:03.726Z,11.80
2022-12-05T05:31:30.888Z,12.30
2022-12-05T05:33:58.619Z,11.97
2022-12-05T05:36:27.930Z,12.33
2022-12-05T05:39:01.833Z,12.13
2022-12-05T05:41:34.055Z,12.17
2022-12-05T05:44:02.478Z,11.63
2022-12-05T05:46:32.943Z,11.87
2022-12-05T05:49:01.288Z,11.25
2022-12-05T05:51:29.600Z,12.10
2022-12-05T05:53:58.418Z,12.27
2022-12-05T05:56:25.825Z,12.85
2022-12-05T05:59:00.716Z,11.88
2022-12-05T06:01:28.912Z,12.80
2022-12-05T06:03:56.365Z,12.93
2022-12-05T06:06:24.495Z,13.27
2022-12-05T06:08:51.622Z,13.15
2022-12-05T06:11:26.551Z,13.55
2022-12-05T06:14:02.873Z,13.35
2022-12-05T06:18:59.517Z,13.77
2022-12-05T06:21:26.713Z,13.83
2022-12-05T06:23:54.466Z,13.90
2022-12-05T06:26:22.914Z,13.18
2022-12-05T06:28:50.928Z,13.25
2022-12-05T06:31:22.764Z,13.27
2022-12-05T06:33:50.171Z,13.27
2022-12-05T06:36:21.145Z,13.68
2022-12-05T06:38:48.836Z,13.33
2022-12-05T06:41:19.491Z,13.82
2022-12-05T06:43:47.472Z,12.88
2022-12-05T06:46:16.164Z,13.60
2022-12-05T06:48:43.886Z,13.00
2022-12-05T06:51:14.835Z,13.18
2022-12-05T06:53:42.368Z,12.45
2022-12-05T06:56:14.817Z,13.13
2022-12-05T06:58:44.082Z,13.48
2022-12-05T07:01:35.947Z,14.27
2022-12-05T07:04:04.231Z,13.60
2022-12-05T07:06:32.765Z,13.65
2022-12-05T07:09:05.218Z,13.57
2022-12-05T07:11:32.531Z,14.00
2022-12-05T07:13:59.671Z,14.25
2022-12-05T07:16:26.825Z,15.05
2022-12-05T07:18:54.113Z,14.13
2022-12-05T07:21:24.657Z,14.27
2022-12-05T07:23:52.029Z,14.02
2022-12-05T07:26:23.403Z,14.80
2022-12-05T07:28:52.148Z,14.75
2022-12-05T07:31:23.752Z,14.68
2022-12-05T07:33:51.118Z,13.77
2022-12-05T07:36:21.613Z,14.48
2022-12-05T07:38:49.369Z,13.85
2022-12-05T07:41:22.330Z,15.75
2022-12-05T07:43:52.387Z,15.43
2022-12-05T07:46:20.207Z,14.77
2022-12-05T07:48:48.788Z,14.32
2022-12-05T07:51:16.013Z,14.23
2022-12-05T07:53:44.408Z,15.45
2022-12-05T07:56:17.101Z,15.70
2022-12-05T07:58:46.917Z,14.13
2022-12-05T08:01:33.531Z,16.45
2022-12-05T08:04:00.743Z,17.60
2022-12-05T08:06:30.589Z,16.70
2022-12-05T08:08:58.131Z,16.00
2022-12-05T08:11:30.090Z,17.02
2022-12-05T08:13:58.366Z,17.27
2022-12-05T08:16:29.635Z,17.08
2022-12-05T08:19:05.093Z,17.20
2022-12-05T08:21:32.522Z,16.70
2022-12-05T08:24:00.124Z,16.83
2022-12-05T08:26:30.312Z,16.85
2022-12-05T08:29:01.445Z,17.77
2022-12-05T08:31:31.436Z,17.00
2022-12-05T08:34:00.202Z,15.60
2022-12-05T08:36:32.122Z,16.80
2022-12-05T08:39:02.676Z,16.13
2022-12-05T08:41:30.492Z,17.00
2022-12-05T08:44:03.203Z,17.23
2022-12-05T08:46:32.419Z,16.27
2022-12-05T08:48:59.793Z,17.52
2022-12-05T08:51:26.972Z,17.17
2022-12-05T08:53:56.400Z,16.25
2022-12-05T08:56:27.491Z,15.60
2022-12-05T08:59:02.958Z,16.40
2022-12-05T09:01:33.397Z,15.95
2022-12-05T09:04:01.679Z,15.73
2022-12-05T09:06:29.945Z,15.80
2022-12-05T09:09:00.612Z,15.32
2022-12-05T09:11:32.360Z,16.57
2022-12-05T09:14:01.605Z,16.90
2022-12-05T09:16:36.829Z,17.05
2022-12-05T09:19:11.173Z,15.73
2022-12-05T09:21:38.260Z,16.73
2022-12-05T09:24:05.447Z,15.15
2022-12-05T09:26:32.851Z,16.42
2022-12-05T09:29:01.326Z,15.70
2022-12-05T09:31:29.433Z,17.08
2022-12-05T09:33:56.984Z,15.93
2022-12-05T09:36:28.734Z,16.55
2022-12-05T09:38:59.611Z,15.45
2022-12-05T09:42:19.398Z,15.90
2022-12-05T09:45:05.162Z,14.98
2022-12-05T09:48:01.522Z,16.48
2022-12-05T09:50:57.405Z,15.50
2022-12-05T09:53:44.961Z,15.93
2022-12-05T09:56:44.828Z,15.93
2022-12-05T09:59:16.835Z,14.90
2022-12-05T10:01:49.467Z,16.23
2022-12-05T10:05:00.311Z,15.15
2022-12-05T10:07:49.337Z,16.00
2022-12-05T10:10:28.658Z,17.95
2022-12-05T10:13:43.031Z,17.30
2022-12-05T10:16:29.830Z,14.98
2022-12-05T10:19:05.573Z,15.82
2022-12-05T10:22:09.330Z,16.20
2022-12-05T10:24:48.146Z,16.88
2022-12-05T10:27:21.576Z,16.65
2022-12-05T10:30:03.046Z,15.80
2022-12-05T10:32:56.086Z,16.33
2022-12-05T10:35:33.887Z,16.05
2022-12-05T10:38:06.307Z,15.55
2022-12-05T10:40:41.533Z,17.58
2022-12-05T10:43:13.947Z,15.70
2022-12-05T10:45:47.946Z,17.45
2022-12-05T10:48:18.682Z,16.48
2022-12-05T10:50:49.918Z,17.55
2022-12-05T10:53:38.449Z,16.50
2022-12-05T10:56:54.603Z,16.00
2022-12-05T10:59:43.745Z,16.27
2022-12-05T11:02:31.480Z,17.42
2022-12-05T11:04:59.824Z,15.82
2022-12-05T11:07:49.577Z,16.90
2022-12-05T11:10:35.837Z,17.90
2022-12-05T11:13:24.661Z,16.00
2022-12-05T11:15:55.478Z,17.42
2022-12-05T11:18:25.603Z,17.90
2022-12-05T11:20:53.015Z,16.60
2022-12-05T11:23:30.635Z,17.50
2022-12-05T11:25:59.427Z,17.38
2022-12-05T11:28:36.374Z,17.58
2022-12-05T11:31:12.260Z,16.83
2022-12-05T11:33:40.485Z,18.60
2022-12-05T11:36:20.752Z,19.15
2022-12-05T11:38:48.097Z,18.23
2022-12-05T11:41:57.527Z,17.20
2022-12-05T11:45:09.314Z,18.50
2022-12-05T11:48:19.996Z,18.10
2022-12-05T11:51:25.355Z,17.63
2022-12-05T11:54:56.389Z,16.92
2022-12-05T11:57:48.882Z,18.95
2022-12-05T12:00:31.152Z,19.23
2022-12-05T12:03:43.441Z,17.38
2022-12-05T12:06:18.272Z,17.08
2022-12-05T12:09:18.592Z,18.37
2022-12-05T12:11:52.486Z,18.73
2022-12-05T12:14:54.412Z,19.17
2022-12-05T12:18:02.624Z,19.38
2022-12-05T12:21:06.140Z,18.90
2022-12-05T12:24:24.268Z,17.77
2022-12-05T12:27:22.424Z,18.48
2022-12-05T12:30:21.385Z,18.27
2022-12-05T12:33:05.665Z,18.33
2022-12-05T12:36:14.201Z,19.15
2022-12-05T12:39:16.920Z,19.15
2022-12-05T12:42:14.525Z,19.05
2022-12-05T12:45:21.030Z,19.27
2022-12-05T12:48:33.410Z,20.25
2022-12-05T12:51:03.106Z,19.57
2022-12-05T12:53:59.503Z,19.60
2022-12-05T12:56:38.836Z,21.65
2022-12-05T13:00:01.088Z,20.85
2022-12-05T13:03:00.573Z,19.40
2022-12-05T13:05:44.151Z,20.75
2022-12-05T13:08:49.605Z,19.75
2022-12-05T13:11:18.491Z,20.42
2022-12-05T13:13:53.282Z,20.52
2022-12-05T13:16:42.490Z,20.60
2022-12-05T13:19:28.921Z,19.60
2022-12-05T13:21:58.461Z,20.58
2022-12-05T13:24:29.189Z,22.58
2022-12-05T13:27:15.356Z,21.75
2022-12-05T13:30:08.059Z,21.67
2022-12-05T13:32:41.098Z,20.98
2022-12-05T13:35:08.050Z,22.05
2022-12-05T13:37:54.333Z,22.52
2022-12-05T13:43:11.596Z,21.48
2022-12-05T13:45:40.991Z,21.20
2022-12-05T13:48:22.437Z,20.88
2022-12-05T13:51:27.246Z,20.45
2022-12-05T13:54:25.892Z,21.70
2022-12-05T13:57:02.596Z,19.70
2022-12-05T14:00:05.960Z,20.42
2022-12-05T14:02:47.674Z,20.17
2022-12-05T14:05:20.507Z,21.27
2022-12-05T14:08:03.387Z,21.48
2022-12-05T14:10:36.454Z,21.10
2022-12-05T14:13:16.068Z,23.98
2022-12-05T14:15:46.007Z,27.52
2022-12-05T14:18:26.629Z,25.45
2022-12-05T14:21:34.455Z,20.40
2022-12-05T14:24:22.045Z,20.90
2022-12-05T14:26:54.687Z,21.77
2022-12-05T14:29:57.744Z,22.52
2022-12-05T14:32:30.026Z,21.40
2022-12-05T14:35:31.443Z,21.33
2022-12-05T14:38:18.862Z,20.85
2022-12-05T14:40:48.128Z,19.55
2022-12-05T14:43:34.509Z,21.27
2022-12-05T14:46:05.925Z,19.75
2022-12-05T14:48:48.733Z,19.90
2022-12-05T14:51:55.481Z,21.27
2022-12-05T14:54:25.250Z,18.95
2022-12-05T14:57:04.342Z,19.20
2022-12-05T14:59:52.721Z,18.52
2022-12-05T15:02:35.845Z,17.98
2022-12-05T15:05:06.189Z,18.80
2022-12-05T15:07:39.579Z,20.15
2022-12-05T15:10:19.836Z,16.92
2022-12-05T15:13:18.004Z,18.08
2022-12-05T15:16:04.062Z,17.30
2022-12-05T15:18:44.424Z,18.73
2022-12-05T15:21:26.672Z,18.73
2022-12-05T15:24:18.180Z,17.63
2022-12-05T15:27:00.485Z,17.83
2022-12-05T15:29:32.784Z,16.85
2022-12-05T15:32:10.412Z,17.67
2022-12-05T15:35:05.824Z,17.10
2022-12-05T15:38:13.667Z,17.92
2022-12-05T15:40:47.645Z,15.63
2022-12-05T15:43:37.412Z,18.02
2022-12-05T15:46:24.021Z,16.65
2022-12-05T15:48:53.475Z,18.50
2022-12-05T15:51:25.757Z,17.48
2022-12-05T15:54:27.690Z,16.80
2022-12-05T15:57:06.894Z,15.43
2022-12-05T15:59:47.413Z,18.23
2022-12-05T16:02:24.227Z,18.27
2022-12-05T16:04:56.789Z,16.70
2022-12-05T16:07:28.864Z,15.80
2022-12-05T16:09:59.401Z,16.40
2022-12-05T16:12:37.354Z,14.10
2022-12-05T16:15:14.161Z,12.98
2022-12-05T16:17:47.280Z,11.10
2022-12-05T16:20:17.671Z,9.50
2022-12-05T16:22:51.841Z,9.60
2022-12-05T16:25:28.864Z,9.80
2022-12-05T16:28:16.345Z,8.85
2022-12-05T16:30:59.713Z,9.73
2022-12-05T16:33:30.388Z,7.68
2022-12-05T16:36:12.476Z,9.53
2022-12-05T16:38:45.431Z,7.93
2022-12-05T16:41:16.164Z,8.63
2022-12-05T16:43:45.924Z,8.80
2022-12-05T16:46:13.804Z,8.10
2022-12-05T16:48:44.945Z,7.80
2022-12-05T16:51:15.165Z,8.53
2022-12-05T16:53:46.549Z,8.02
2022-12-05T16:56:28.522Z,7.63
2022-12-05T16:58:56.580Z,8.73
2022-12-05T17:01:27.500Z,8.80
2022-12-05T17:03:56.370Z,8.70
2022-12-05T17:06:26.177Z,8.98
2022-12-05T17:08:55.050Z,9.05
2022-12-05T17:11:27.189Z,8.40
2022-12-05T17:13:58.303Z,9.73
2022-12-05T17:16:29.301Z,10.90
2022-12-05T17:18:57.112Z,9.60
2022-12-05T17:21:32.067Z,11.43
2022-12-05T17:24:00.132Z,10.32
2022-12-05T17:26:28.439Z,9.63
2022-12-05T17:28:56.953Z,10.03
2022-12-05T17:31:26.324Z,8.50
2022-12-05T17:33:55.532Z,9.32
2022-12-05T17:36:24.785Z,10.02
2022-12-05T17:38:52.917Z,9.02
2022-12-05T17:41:25.055Z,9.50
2022-12-05T17:43:52.512Z,9.77
2022-12-05T17:46:23.384Z,9.75
2022-12-05T17:48:51.984Z,9.17
2022-12-05T17:51:20.649Z,10.07
2022-12-05T17:53:47.888Z,9.48
2022-12-05T17:56:15.849Z,8.73
2022-12-05T17:58:44.627Z,9.40
2022-12-05T18:01:17.764Z,10.00
2022-12-05T18:03:45.266Z,8.90
2022-12-05T18:06:12.927Z,9.63
2022-12-05T18:08:42.179Z,9.93
2022-12-05T18:11:09.688Z,10.07
2022-12-05T18:13:36.816Z,10.43
2022-12-05T18:16:05.095Z,10.70
2022-12-05T18:18:32.470Z,10.10
2022-12-05T18:21:12.580Z,11.43
2022-12-05T18:23:41.350Z,9.47
2022-12-05T18:26:10.915Z,9.63
2022-12-05T18:28:40.565Z,9.07
2022-12-05T18:31:17.562Z,10.82
2022-12-05T18:33:46.764Z,12.02
2022-12-05T18:36:18.687Z,11.30
2022-12-05T18:38:58.840Z,10.63
2022-12-05T18:41:27.676Z,11.65
2022-12-05T18:43:56.033Z,11.30
2022-12-05T18:46:25.666Z,10.45
2022-12-05T18:48:54.355Z,12.53
2022-12-05T18:51:24.673Z,11.93
2022-12-05T18:53:54.500Z,11.63
2022-12-05T18:56:26.728Z,11.45
2022-12-05T18:59:09.597Z,12.45
2022-12-05T19:01:41.072Z,12.63
2022-12-05T19:04:13.039Z,12.13
2022-12-05T19:06:46.649Z,11.25
2022-12-05T19:09:21.098Z,10.32
2022-12-05T19:11:52.281Z,10.55
2022-12-05T19:14:21.453Z,12.18
2022-12-05T19:16:58.034Z,11.43
2022-12-05T19:19:29.106Z,16.23
2022-12-05T19:21:59.541Z,16.73
2022-12-05T19:24:28.035Z,14.35
2022-12-05T19:26:56.306Z,12.97
2022-12-05T19:29:24.221Z,13.25
2022-12-05T19:31:52.126Z,13.57
2022-12-05T19:34:20.035Z,13.50
2022-12-05T19:36:48.213Z,13.77
2022-12-05T19:39:20.975Z,15.02
2022-12-05T19:41:52.256Z,14.73
2022-12-05T19:44:20.155Z,16.20
2022-12-05T19:46:51.046Z,13.38
2022-12-05T19:49:20.313Z,14.15
2022-12-05T19:51:49.159Z,13.18
2022-12-05T19:54:22.121Z,14.15
2022-12-05T19:56:50.200Z,15.13
2022-12-05T19:59:20.822Z,14.85
2022-12-05T20:01:50.509Z,13.40
2022-12-05T20:04:18.690Z,13.80
2022-12-05T20:06:51.473Z,14.45
2022-12-05T20:09:22.974Z,13.90
2022-12-05T20:11:56.027Z,14.10
2022-12-05T20:14:26.061Z,14.25
2022-12-05T20:16:55.386Z,13.02
2022-12-05T20:19:24.773Z,12.27
2022-12-05T20:21:52.746Z,12.77
2022-12-05T20:24:21.545Z,11.85
2022-12-05T20:26:50.311Z,11.65
2022-12-05T20:29:18.309Z,12.98
2022-12-05T20:31:46.334Z,12.32
2022-12-05T20:34:16.050Z,10.98
2022-12-05T20:36:44.097Z,11.85
2022-12-05T20:39:16.526Z,11.65
2022-12-05T20:41:45.325Z,12.98
2022-12-05T20:44:16.690Z,12.77
2022-12-05T20:46:44.562Z,13.20
2022-12-05T20:49:15.760Z,11.45
2022-12-05T20:51:49.458Z,12.80
2022-12-05T20:54:18.695Z,12.52
2022-12-05T20:56:47.338Z,13.43
2022-12-05T20:59:15.936Z,14.88
2022-12-05T21:01:48.810Z,15.00
2022-12-05T21:04:16.830Z,13.80
2022-12-05T21:06:45.971Z,14.60
2022-12-05T21:09:26.357Z,13.88
2022-12-05T21:11:57.229Z,13.20
2022-12-05T21:14:24.804Z,12.02
2022-12-05T21:16:53.240Z,12.00
2022-12-05T21:19:21.452Z,11.57
2022-12-05T21:21:48.975Z,12.63
2022-12-05T21:24:16.386Z,12.70
2022-12-05T21:26:43.662Z,12.93
2022-12-05T21:29:11.237Z,11.95
2022-12-05T21:31:42.289Z,11.20
2022-12-05T21:34:20.494Z,11.63
2022-12-05T21:36:48.175Z,11.50
2022-12-05T21:39:15.734Z,12.85
2022-12-05T21:41:43.089Z,12.73
2022-12-05T21:44:10.350Z,11.93
2022-12-05T21:46:37.641Z,11.18
2022-12-05T21:49:04.848Z,11.27
2022-12-05T21:51:31.902Z,11.50
2022-12-05T21:53:58.976Z,11.68
2022-12-05T21:56:26.019Z,12.05
2022-12-05T21:58:53.509Z,12.77
2022-12-05T22:01:24.379Z,12.45
2022-12-05T22:03:59.233Z,12.52
2022-12-05T22:06:26.780Z,11.80
2022-12-05T22:08:55.502Z,13.65
2022-12-05T22:11:24.922Z,12.88
2022-12-05T22:13:52.982Z,12.00
2022-12-05T22:16:21.024Z,12.90
2022-12-05T22:18:48.795Z,12.20
2022-12-05T22:21:21.184Z,12.07
2022-12-05T22:23:49.095Z,13.20
2022-12-05T22:26:23.184Z,13.05
2022-12-05T22:28:52.076Z,12.33
2022-12-05T22:31:20.753Z,11.82
2022-12-05T22:33:48.719Z,12.05
2022-12-05T22:36:18.640Z,11.60
2022-12-05T22:38:48.044Z,13.40
2022-12-05T22:41:26.425Z,13.25
2022-12-05T22:43:59.304Z,13.13
2022-12-05T22:46:28.829Z,12.73
2022-12-05T22:48:56.812Z,13.30
2022-12-05T22:51:24.078Z,12.68
2022-12-05T22:53:52.672Z,13.10
2022-12-05T22:56:21.807Z,11.60
2022-12-05T22:58:49.274Z,12.27
2022-12-05T23:01:31.365Z,13.37
2022-12-05T23:04:10.132Z,12.50
2022-12-05T23:06:38.747Z,11.63
2022-12-05T23:09:09.706Z,11.20
2022-12-05T23:11:38.092Z,11.17
2022-12-05T23:14:06.989Z,10.50
2022-12-05T23:16:34.743Z,9.57
2022-12-05T23:19:05.014Z,9.43
2022-12-05T23:21:40.577Z,10.33
2022-12-05T23:24:11.290Z,9.23
2022-12-05T23:26:45.724Z,8.80
2022-12-05T23:29:14.302Z,8.60
2022-12-05T23:31:42.208Z,9.83
2022-12-05T23:34:09.986Z,9.87
2022-12-05T23:36:37.874Z,9.73
2022-12-05T23:39:05.966Z,9.27
2022-12-05T23:41:33.180Z,7.90
2022-12-05T23:44:00.367Z,6.57
2022-12-05T23:46:28.391Z,6.03
2022-12-05T23:48:56.236Z,6.50
2022-12-05T23:51:27.623Z,6.33
2022-12-05T23:54:00.537Z,5.73
2022-12-05T23:56:33.398Z,6.90
2022-12-05T23:59:02.515Z,5.23
